x

New York Harbor Entrance - 15 Nm Se Of Breezy Point , Ny (44065) Wave Buoy

10:50pm - Wed 28th Sep 2016 All times are EDT. -4 hours from GMT.

  • Sig Wave height 7.5ft
  • Swell Direction
  • Peak Period 8s
  • Average Period 6s
  • Wind
    29mph, 36mph gusts
  • Sea Temp 70°f
  • Air Temp 63°f
  • Sea Pressure 1022.3mb
  • New York Harbor Entrance - 15 Nm Se Of Breezy Point , Ny
  • New York Harbor Entrance - 15 Nm Se Of Breezy Point , Ny

More Historic Weather Station data

Upgrade to MSW Pro to gain access to the past 30 days of data for over 8000 Wavebouys and Weather Stations around the globe.

Join Pro

Comparision Forecast

View Surf forecast
   
Wed 09/28 10:50pm 7.5ft 8s 6s 29 36 mph 1022.3mb 70f 63f
9:50pm 7.5ft 8s 6s 29 34 mph 1021.9mb 70f 63f
8:50pm 7.5ft 8s 6s 27 31 mph 1022mb 70f 63f
7:50pm 7ft 8s 5s 27 34 mph 1021mb 71f 63f
6:50pm 6.5ft 7s 5s 27 31 mph 1020.3mb 71f 64f
5:50pm 6.5ft 7s 5s 25 29 mph 1019.5mb 71f 65f
4:50pm 6ft 6s 5s 25 31 mph 1019.4mb 71f 65f
3:50pm 7ft 7s 5s 25 29 mph 1019.4mb 71f 65f
2:50pm 7ft 6s 5s 25 29 mph 1019.3mb 71f 65f
1:50pm 7ft 6s 5s 25 29 mph 1019.3mb 71f 66f
12:50pm 6ft 5s 5s 27 31 mph 1018.8mb 71f 68f
11:50am 5ft 5s 5s 22 29 mph 1018.7mb 71f 68f
10:50am 4.5ft 5s 4s 25 29 mph 1018.1mb 71f 68f
9:50am 4.5ft 4s 4s 25 29 mph 1017.9mb 71f 67f
8:50am 3.5ft 12s 4s 22 27 mph 1017.2mb 71f 68f
7:50am 3.5ft 6s 5s 20 22 mph 1017mb 71f 68f
6:50am 3.5ft 6s 5s 16 18 mph 1016.5mb 71f 68f
5:50am 3.5ft 6s 6s 16 18 mph 1016mb 71f 68f
4:50am 3.5ft 11s 6s 13
mph
1015.7mb 71f 68f
3:50am 3.5ft 7s 6s 9
mph
1015.9mb 71f 69f
2:50am 3ft 6s 6s 9 11 mph 1015.6mb 71f 69f
1:50am 3ft 7s 6s 7 9 mph 1015.6mb 71f 68f
12:50am 3.5ft 7s 6s 7 9 mph 1015.3mb 71f 68f
Tue 09/27 11:50pm 3.5ft 7s 6s 7 9 mph 1014.9mb 71f 69f
10:50pm 3.5ft 7s 6s 9 11 mph 1014.6mb 71f 69f
9:50pm 3.5ft 7s 5s 9 11 mph 1014.2mb 71f 70f
8:50pm 4.5ft 7s 5s 11 13 mph 1013.8mb 71f 70f
7:50pm 4ft 7s 5s 11 13 mph 1013.3mb 71f 70f
6:50pm 4.5ft 7s 6s 13 16 mph 1012.6mb 71f 70f
5:50pm 4ft 6s 6s 9 11 mph 1012.5mb 72f 69f
4:50pm 4.5ft 7s 6s 9
mph
1012.3mb 72f 70f
3:50pm 3.5ft 6s 6s 4 7 mph 1012.1mb 71f 70f
2:50pm 3.5ft 6s 6s 4 7 mph 1012.8mb 71f 69f
1:50pm 3.5ft 6s 5s 7 9 mph 1012.7mb 71f 68f
12:50pm 2.5ft 5s 5s 7 9 mph 1013.4mb 71f 68f
11:50am 2.5ft 6s 5s 9 11 mph 1013.5mb 71f 67f
10:50am 2.5ft 6s 5s 11 13 mph 1014mb 71f 67f
9:50am 3ft 6s 4s 13 16 mph 1013.8mb 71f 67f
8:50am 3.5ft 6s 4s 11 13 mph 1013.3mb 71f 67f
7:50am 3.5ft 6s 5s 16 18 mph 1012.9mb 71f 68f
6:50am 3.5ft 5s 4s 16 18 mph 1012.3mb 71f 69f
5:50am 4.5ft 5s 4s 18 22 mph 1012mb 71f 70f
4:50am 4.5ft 5s 5s 18 22 mph 1012.1mb 71f 70f
3:50am 4.5ft 6s 4s 22 27 mph 1012.1mb 71f 71f
2:50am 4.5ft 5s 4s 18 20 mph 1012.9mb 71f 71f
1:50am 4.5ft 5s 4s 20 22 mph 1013.7mb 71f 71f
12:50am 5ft 6s 5s 22 25 mph 1014.5mb 71f 71f
Mon 09/26 11:50pm 4.5ft 5s 4s 20 25 mph 1015.4mb 71f 71f
10:50pm 4.5ft 5s 4s 20 25 mph 1016.6mb 71f 70f
9:50pm 3.5ft 4s 4s 20 25 mph 1017.6mb 71f 69f
8:50pm 3.5ft 4s 4s 18 22 mph 1017.8mb 71f 69f
7:50pm 3ft 4s 4s 18 22 mph 1018mb 71f 68f
6:50pm 2.5ft 4s 4s 18 22 mph 1018mb 71f 68f
5:50pm 2.5ft 4s 4s 16 20 mph 1018.4mb 71f 68f
4:50pm 2.5ft 9s 4s 16 20 mph 1018.5mb 72f 67f
3:50pm 2.5ft 10s 4s 16 20 mph 1019.1mb 72f 67f
2:50pm 2ft 9s 4s 16 20 mph 1019.9mb 72f 67f
1:50pm 2ft 9s 4s 13 18 mph 1020.2mb 72f 67f
12:50pm 2ft 9s 4s 9 13 mph 1021.3mb 71f 67f
11:50am 2ft 9s 4s 13 18 mph 1021.7mb 71f 67f
10:50am 2ft 10s 5s 11 16 mph 1022mb 71f 66f
9:50am 2ft 10s 5s 9 13 mph 1022.4mb 71f 66f
8:50am 1.6ft 10s 5s 9 13 mph 1022mb 71f 66f
7:50am 2ft 10s 6s 7 9 mph 1022.2mb 71f 66f
6:50am 1.6ft 10s 5s 4 9 mph 1021.8mb 71f 65f
5:50am 2ft 10s 5s 7 9 mph 1021.4mb 71f 65f
4:50am 2ft 10s 5s 7 11 mph 1021.4mb 71f 65f
3:50am 2ft 9s 4s 7 11 mph 1021.5mb 71f 65f
2:50am 2.5ft 10s 4s 7 11 mph 1021.8mb 71f 66f
1:50am 2.5ft 10s 5s 9 11 mph 1022.2mb 71f 66f
12:50am 2.5ft 10s 5s 7 9 mph 1022.2mb 71f 66f
Sun 09/25 11:50pm 2.5ft 10s 7s 9 11 mph 1022.2mb 71f 66f
9:50pm 2.5ft 10s 7s 2 4 mph 1021.7mb 71f 67f
8:50pm 2.5ft 10s 7s 2 4 mph 1021.3mb 71f 67f
7:50pm 2.5ft 11s 6s 2 4 mph 1020.9mb 72f 67f
6:50pm 3ft 10s 6s 2 7 mph 1020.5mb 72f 67f
5:50pm 2.5ft 11s 6s 7 9 mph 1020mb 72f 67f
4:50pm 2.5ft 10s 6s 9 13 mph 1019.9mb 72f 66f
3:50pm 3ft 11s 6s 7 9 mph 1020.3mb 72f 65f
2:50pm 3.5ft 11s 6s 7 9 mph 1020.8mb 71f 64f
1:50pm 3.5ft 10s 6s 7 13 mph 1021.5mb 71f 62f
12:50pm 3.5ft 11s 6s 13 16 mph 1021.8mb 71f 62f
11:50am 3.5ft 10s 5s 11 16 mph 1022.3mb 71f 61f
10:50am 3.5ft 10s 6s 13 18 mph 1022.3mb 71f 61f
9:50am 3.5ft 11s 5s 13 18 mph 1022.1mb 71f 60f
8:50am 3.5ft 10s 5s 16 20 mph 1022mb 71f 60f
7:50am 4ft 10s 4s 18 20 mph 1021.9mb 71f 61f
6:50am 4ft 11s 5s 18 22 mph 1021.3mb 72f 61f
5:50am 4ft 10s 5s 20 22 mph 1020.9mb 72f 62f
4:50am 4ft 11s 5s 18 22 mph 1020.4mb 72f 62f